sensor_id;sensor_type;location;lat;lon;timestamp;pressure;altitude;pressure_sealevel;temperature;humidity
68399;BME280;56258;52.196;13.868;2022-09-09T00:00:34;100706.63;;;22.36;54.06
68399;BME280;56258;52.196;13.868;2022-09-09T00:11:20;100711.78;;;22.31;54.83
68399;BME280;56258;52.196;13.868;2022-09-09T00:14:00;100710.13;;;22.30;54.60
68399;BME280;56258;52.196;13.868;2022-09-09T00:16:35;100710.56;;;22.33;54.22
68399;BME280;56258;52.196;13.868;2022-09-09T00:19:07;100709.97;;;22.38;54.25
68399;BME280;56258;52.196;13.868;2022-09-09T00:21:49;100706.22;;;22.39;54.60
68399;BME280;56258;52.196;13.868;2022-09-09T00:24:32;100701.22;;;22.36;54.36
68399;BME280;56258;52.196;13.868;2022-09-09T00:27:11;100693.47;;;22.33;54.48
68399;BME280;56258;52.196;13.868;2022-09-09T00:29:54;100698.88;;;22.33;53.98
68399;BME280;56258;52.196;13.868;2022-09-09T00:32:24;100698.47;;;22.29;54.27
68399;BME280;56258;52.196;13.868;2022-09-09T00:35:03;100701.38;;;22.28;54.94
68399;BME280;56258;52.196;13.868;2022-09-09T00:37:32;100696.16;;;22.26;54.07
68399;BME280;56258;52.196;13.868;2022-09-09T00:40:18;100693.44;;;22.26;54.39
68399;BME280;56258;52.196;13.868;2022-09-09T00:43:18;100687.63;;;22.29;54.34
68399;BME280;56258;52.196;13.868;2022-09-09T00:56:42;100677.19;;;22.26;54.66
68399;BME280;56258;52.196;13.868;2022-09-09T00:59:32;100679.06;;;22.26;54.51
68399;BME280;56258;52.196;13.868;2022-09-09T01:04:50;100678.63;;;22.22;55.02
68399;BME280;56258;52.196;13.868;2022-09-09T01:07:18;100692.63;;;22.26;54.68
68399;BME280;56258;52.196;13.868;2022-09-09T01:09:55;100681.78;;;22.26;54.89
68399;BME280;56258;52.196;13.868;2022-09-09T01:12:38;100681.16;;;22.24;55.19
68399;BME280;56258;52.196;13.868;2022-09-09T01:15:27;100686.38;;;22.25;54.32
68399;BME280;56258;52.196;13.868;2022-09-09T01:18:03;100683.84;;;22.24;54.54
68399;BME280;56258;52.196;13.868;2022-09-09T01:20:49;100679.66;;;22.21;55.10
68399;BME280;56258;52.196;13.868;2022-09-09T01:26:30;100688.44;;;22.23;54.27
68399;BME280;56258;52.196;13.868;2022-09-09T01:28:59;100685.91;;;22.22;55.11
68399;BME280;56258;52.196;13.868;2022-09-09T01:31:32;100691.31;;;22.22;54.82
68399;BME280;56258;52.196;13.868;2022-09-09T01:34:10;100688.44;;;22.23;54.92
68399;BME280;56258;52.196;13.868;2022-09-09T01:36:43;100689.28;;;22.24;54.50
68399;BME280;56258;52.196;13.868;2022-09-09T01:39:12;100689.66;;;22.21;55.12
68399;BME280;56258;52.196;13.868;2022-09-09T01:41:39;100691.31;;;22.22;55.16
68399;BME280;56258;52.196;13.868;2022-09-09T01:44:07;100685.06;;;22.21;54.40
68399;BME280;56258;52.196;13.868;2022-09-09T01:46:34;100690.94;;;22.25;54.39
68399;BME280;56258;52.196;13.868;2022-09-09T01:49:03;100684.28;;;22.27;54.99
68399;BME280;56258;52.196;13.868;2022-09-09T01:51:30;100691.78;;;22.25;54.96
68399;BME280;56258;52.196;13.868;2022-09-09T01:53:57;100689.66;;;22.21;54.89
68399;BME280;56258;52.196;13.868;2022-09-09T02:05:20;100690.91;;;22.18;54.63
68399;BME280;56258;52.196;13.868;2022-09-09T02:07:51;100683.38;;;22.13;54.58
68399;BME280;56258;52.196;13.868;2022-09-09T02:10:25;100685.03;;;22.15;54.63
68399;BME280;56258;52.196;13.868;2022-09-09T02:13:03;100690.66;;;22.13;54.94
68399;BME280;56258;52.196;13.868;2022-09-09T02:15:45;100692.53;;;22.12;54.22
68399;BME280;56258;52.196;13.868;2022-09-09T02:18:15;100686.03;;;22.07;54.92
68399;BME280;56258;52.196;13.868;2022-09-09T02:20:44;100683.91;;;22.02;54.97
68399;BME280;56258;52.196;13.868;2022-09-09T02:23:12;100687.69;;;22.08;54.26
68399;BME280;56258;52.196;13.868;2022-09-09T02:25:41;100685.63;;;22.10;54.16
68399;BME280;56258;52.196;13.868;2022-09-09T02:28:09;100691.69;;;22.12;54.53
68399;BME280;56258;52.196;13.868;2022-09-09T02:30:39;100695.81;;;22.08;54.67
68399;BME280;56258;52.196;13.868;2022-09-09T02:33:09;100689.94;;;22.04;54.34
68399;BME280;56258;52.196;13.868;2022-09-09T02:35:39;100691.75;;;21.97;54.95
68399;BME280;56258;52.196;13.868;2022-09-09T02:38:10;100693.59;;;21.90;54.59
68399;BME280;56258;52.196;13.868;2022-09-09T02:40:38;100692.72;;;21.83;54.92
68399;BME280;56258;52.196;13.868;2022-09-09T02:43:05;100692.47;;;21.78;55.01
68399;BME280;56258;52.196;13.868;2022-09-09T02:45:44;100697.47;;;21.81;54.96
68399;BME280;56258;52.196;13.868;2022-09-09T02:48:36;100693.81;;;21.89;54.73
68399;BME280;56258;52.196;13.868;2022-09-09T02:56:53;100707.72;;;21.85;54.56
68399;BME280;56258;52.196;13.868;2022-09-09T02:59:24;100710.19;;;21.80;55.12
68399;BME280;56258;52.196;13.868;2022-09-09T03:01:51;100709.28;;;21.73;54.80
68399;BME280;56258;52.196;13.868;2022-09-09T03:04:19;100707.81;;;21.71;54.80
68399;BME280;56258;52.196;13.868;2022-09-09T03:06:47;100711.34;;;21.71;55.44
68399;BME280;56258;52.196;13.868;2022-09-09T03:09:13;100707.59;;;21.72;55.22
68399;BME280;56258;52.196;13.868;2022-09-09T03:11:40;100704.13;;;21.78;54.51
68399;BME280;56258;52.196;13.868;2022-09-09T03:14:07;100711.59;;;21.76;55.15
68399;BME280;56258;52.196;13.868;2022-09-09T03:16:34;100713.22;;;21.71;55.31
68399;BME280;56258;52.196;13.868;2022-09-09T03:19:01;100718.63;;;21.71;55.40
68399;BME280;56258;52.196;13.868;2022-09-09T03:21:28;100711.53;;;21.70;55.03
68399;BME280;56258;52.196;13.868;2022-09-09T03:23:55;100718.81;;;21.69;54.79
68399;BME280;56258;52.196;13.868;2022-09-09T03:26:21;100725.06;;;21.70;55.54
68399;BME280;56258;52.196;13.868;2022-09-09T03:28:49;100720.94;;;21.74;55.23
68399;BME280;56258;52.196;13.868;2022-09-09T03:31:18;100721.19;;;21.79;54.45
68399;BME280;56258;52.196;13.868;2022-09-09T03:33:45;100722.59;;;21.75;55.13
68399;BME280;56258;52.196;13.868;2022-09-09T03:36:12;100718.88;;;21.76;54.70
68399;BME280;56258;52.196;13.868;2022-09-09T03:38:39;100728.03;;;21.75;55.09
68399;BME280;56258;52.196;13.868;2022-09-09T03:41:06;100721.56;;;21.76;54.62
68399;BME280;56258;52.196;13.868;2022-09-09T03:43:33;100716.81;;;21.78;54.46
68399;BME280;56258;52.196;13.868;2022-09-09T03:46:00;100709.06;;;21.75;54.94
68399;BME280;56258;52.196;13.868;2022-09-09T03:48:27;100709.69;;;21.70;54.52
68399;BME280;56258;52.196;13.868;2022-09-09T03:50:54;100711.09;;;21.66;54.26
68399;BME280;56258;52.196;13.868;2022-09-09T03:53:23;100709.88;;;21.69;54.39
68399;BME280;56258;52.196;13.868;2022-09-09T03:55:52;100707.56;;;21.66;54.71
68399;BME280;56258;52.196;13.868;2022-09-09T03:58:23;100719.47;;;21.71;54.99
68399;BME280;56258;52.196;13.868;2022-09-09T04:00:58;100715.31;;;21.75;54.12
68399;BME280;56258;52.196;13.868;2022-09-09T04:03:26;100711.75;;;21.68;54.91
68399;BME280;56258;52.196;13.868;2022-09-09T04:05:55;100711.53;;;21.70;54.26
68399;BME280;56258;52.196;13.868;2022-09-09T04:08:22;100713.16;;;21.64;54.87
68399;BME280;56258;52.196;13.868;2022-09-09T04:10:52;100714.66;;;21.67;54.29
68399;BME280;56258;52.196;13.868;2022-09-09T04:13:19;100711.28;;;21.65;54.69
68399;BME280;56258;52.196;13.868;2022-09-09T04:15:57;100717.94;;;21.62;54.65
68399;BME280;56258;52.196;13.868;2022-09-09T04:18:25;100727.91;;;21.62;54.42
68399;BME280;56258;52.196;13.868;2022-09-09T04:20:53;100720.44;;;21.64;55.00
68399;BME280;56258;52.196;13.868;2022-09-09T04:23:20;100726.03;;;21.62;54.85
68399;BME280;56258;52.196;13.868;2022-09-09T04:25:48;100728.94;;;21.61;54.47
68399;BME280;56258;52.196;13.868;2022-09-09T04:28:16;100729.34;;;21.58;54.88
68399;BME280;56258;52.196;13.868;2022-09-09T04:30:44;100723.13;;;21.64;54.64
68399;BME280;56258;52.196;13.868;2022-09-09T04:33:12;100721.03;;;21.59;54.89
68399;BME280;56258;52.196;13.868;2022-09-09T04:35:43;100728.19;;;21.67;54.39
68399;BME280;56258;52.196;13.868;2022-09-09T04:38:10;100736.03;;;21.62;54.78
68399;BME280;56258;52.196;13.868;2022-09-09T04:40:37;100741.63;;;21.60;54.80
68399;BME280;56258;52.196;13.868;2022-09-09T04:43:09;100745.56;;;21.58;54.38
68399;BME280;56258;52.196;13.868;2022-09-09T04:45:40;100743.44;;;21.53;54.54
68399;BME280;56258;52.196;13.868;2022-09-09T04:48:08;100745.28;;;21.52;55.09
68399;BME280;56258;52.196;13.868;2022-09-09T04:50:36;100749.44;;;21.48;54.74
68399;BME280;56258;52.196;13.868;2022-09-09T04:53:03;100749.03;;;21.51;55.16
68399;BME280;56258;52.196;13.868;2022-09-09T04:55:32;100750.34;;;21.55;54.81
68399;BME280;56258;52.196;13.868;2022-09-09T04:58:06;100749.50;;;21.55;55.01
68399;BME280;56258;52.196;13.868;2022-09-09T05:00:34;100754.31;;;21.60;54.89
68399;BME280;56258;52.196;13.868;2022-09-09T05:03:03;100746.22;;;21.60;54.25
68399;BME280;56258;52.196;13.868;2022-09-09T05:05:31;100747.88;;;21.61;54.50
68399;BME280;56258;52.196;13.868;2022-09-09T05:08:05;100757.88;;;21.60;54.38
68399;BME280;56258;52.196;13.868;2022-09-09T05:10:33;100748.28;;;21.58;54.94
68399;BME280;56258;52.196;13.868;2022-09-09T05:13:00;100743.06;;;21.56;54.95
68399;BME280;56258;52.196;13.868;2022-09-09T05:15:27;100747.00;;;21.53;54.63
68399;BME280;56258;52.196;13.868;2022-09-09T05:18:00;100749.69;;;21.53;54.61
68399;BME280;56258;52.196;13.868;2022-09-09T05:20:27;100754.13;;;21.61;54.17
68399;BME280;56258;52.196;13.868;2022-09-09T05:22:55;100757.88;;;21.60;54.73
68399;BME280;56258;52.196;13.868;2022-09-09T05:25:23;100757.03;;;21.60;54.16
68399;BME280;56258;52.196;13.868;2022-09-09T05:27:52;100754.97;;;21.62;54.17
68399;BME280;56258;52.196;13.868;2022-09-09T05:30:21;100747.31;;;21.65;54.65
68399;BME280;56258;52.196;13.868;2022-09-09T05:32:49;100752.25;;;21.62;54.78
68399;BME280;56258;52.196;13.868;2022-09-09T05:35:16;100750.59;;;21.61;54.56
68399;BME280;56258;52.196;13.868;2022-09-09T05:37:45;100750.03;;;21.65;54.71
68399;BME280;56258;52.196;13.868;2022-09-09T05:40:12;100758.81;;;21.74;54.08
68399;BME280;56258;52.196;13.868;2022-09-09T05:42:39;100754.31;;;21.81;54.42
68399;BME280;56258;52.196;13.868;2022-09-09T05:45:07;100756.84;;;22.10;54.19
68399;BME280;56258;52.196;13.868;2022-09-09T05:47:35;100756.22;;;22.36;54.44
68399;BME280;56258;52.196;13.868;2022-09-09T05:50:04;100763.75;;;22.41;54.89
68399;BME280;56258;52.196;13.868;2022-09-09T05:52:31;100759.84;;;22.57;54.05
68399;BME280;56258;52.196;13.868;2022-09-09T05:54:58;100761.25;;;22.81;53.29
68399;BME280;56258;52.196;13.868;2022-09-09T05:57:25;100757.50;;;22.82;52.84
68399;BME280;56258;52.196;13.868;2022-09-09T05:59:52;100763.72;;;22.76;52.82
68399;BME280;56258;52.196;13.868;2022-09-09T06:02:20;100759.13;;;22.69;53.03
68399;BME280;56258;52.196;13.868;2022-09-09T06:04:47;100764.75;;;22.75;53.47
68399;BME280;56258;52.196;13.868;2022-09-09T06:07:13;100760.38;;;22.74;53.31
68399;BME280;56258;52.196;13.868;2022-09-09T06:09:40;100754.97;;;22.74;52.50
68399;BME280;56258;52.196;13.868;2022-09-09T06:12:07;100758.50;;;22.74;52.92
68399;BME280;56258;52.196;13.868;2022-09-09T06:14:35;100762.69;;;22.77;52.19
68399;BME280;56258;52.196;13.868;2022-09-09T06:17:03;100770.22;;;22.81;52.37
68399;BME280;56258;52.196;13.868;2022-09-09T06:19:30;100773.78;;;22.82;52.24
68399;BME280;56258;52.196;13.868;2022-09-09T06:21:57;100776.66;;;22.80;52.26
68399;BME280;56258;52.196;13.868;2022-09-09T06:24:24;100773.94;;;22.80;52.38
68399;BME280;56258;52.196;13.868;2022-09-09T06:26:51;100771.00;;;22.75;52.11
68399;BME280;56258;52.196;13.868;2022-09-09T06:29:18;100761.56;;;22.64;52.00
68399;BME280;56258;52.196;13.868;2022-09-09T06:31:44;100776.59;;;22.67;52.24
68399;BME280;56258;52.196;13.868;2022-09-09T06:34:11;100770.38;;;22.73;52.34
68399;BME280;56258;52.196;13.868;2022-09-09T06:36:38;100783.50;;;22.69;51.73
68399;BME280;56258;52.196;13.868;2022-09-09T06:39:06;100776.59;;;22.67;52.05
68399;BME280;56258;52.196;13.868;2022-09-09T06:41:39;100773.47;;;22.63;52.04
68399;BME280;56258;52.196;13.868;2022-09-09T06:44:06;100767.16;;;22.56;52.06
68399;BME280;56258;52.196;13.868;2022-09-09T06:46:33;100770.53;;;22.58;52.43
68399;BME280;56258;52.196;13.868;2022-09-09T06:49:00;100774.44;;;22.56;52.47
68399;BME280;56258;52.196;13.868;2022-09-09T06:51:31;100780.63;;;22.43;52.80
68399;BME280;56258;52.196;13.868;2022-09-09T06:54:00;100786.22;;;22.35;53.02
68399;BME280;56258;52.196;13.868;2022-09-09T06:56:37;100780.59;;;22.36;52.84
68399;BME280;56258;52.196;13.868;2022-09-09T06:59:05;100786.38;;;22.33;52.34
68399;BME280;56258;52.196;13.868;2022-09-09T07:01:42;100786.34;;;22.27;52.63
68399;BME280;56258;52.196;13.868;2022-09-09T07:04:17;100782.19;;;22.24;53.16
68399;BME280;56258;52.196;13.868;2022-09-09T07:06:45;100780.03;;;22.20;52.90
68399;BME280;56258;52.196;13.868;2022-09-09T07:09:14;100788.81;;;22.22;53.07
68399;BME280;56258;52.196;13.868;2022-09-09T07:11:46;100783.25;;;22.30;52.97
68399;BME280;56258;52.196;13.868;2022-09-09T07:14:14;100793.00;;;22.24;52.38
68399;BME280;56258;52.196;13.868;2022-09-09T07:16:41;100786.78;;;22.30;52.56
68399;BME280;56258;52.196;13.868;2022-09-09T07:19:09;100786.59;;;22.32;52.42
68399;BME280;56258;52.196;13.868;2022-09-09T07:21:36;100792.91;;;22.39;52.22
68399;BME280;56258;52.196;13.868;2022-09-09T07:24:03;100799.75;;;22.35;52.76
68399;BME280;56258;52.196;13.868;2022-09-09T07:26:34;100797.91;;;22.42;52.00
68399;BME280;56258;52.196;13.868;2022-09-09T07:29:00;100793.31;;;22.36;52.04
68399;BME280;56258;52.196;13.868;2022-09-09T07:31:29;100797.28;;;22.40;52.44
68399;BME280;56258;52.196;13.868;2022-09-09T07:34:00;100797.13;;;22.48;52.14
68399;BME280;56258;52.196;13.868;2022-09-09T07:36:32;100793.97;;;22.45;52.59
68399;BME280;56258;52.196;13.868;2022-09-09T07:39:05;100801.03;;;22.39;52.05
68399;BME280;56258;52.196;13.868;2022-09-09T07:41:40;100801.81;;;22.33;52.22
68399;BME280;56258;52.196;13.868;2022-09-09T07:44:10;100807.06;;;22.34;52.83
68399;BME280;56258;52.196;13.868;2022-09-09T07:46:38;100804.28;;;22.28;52.88
68399;BME280;56258;52.196;13.868;2022-09-09T07:49:09;100808.88;;;22.27;52.79
68399;BME280;56258;52.196;13.868;2022-09-09T07:51:38;100805.56;;;22.32;52.39
68399;BME280;56258;52.196;13.868;2022-09-09T07:54:07;100813.88;;;22.30;52.03
68399;BME280;56258;52.196;13.868;2022-09-09T07:56:36;100817.03;;;22.34;52.91
68399;BME280;56258;52.196;13.868;2022-09-09T07:59:06;100815.59;;;22.38;52.54
68399;BME280;56258;52.196;13.868;2022-09-09T08:01:35;100818.88;;;22.33;52.75
68399;BME280;56258;52.196;13.868;2022-09-09T08:04:07;100826.03;;;22.41;52.23
68399;BME280;56258;52.196;13.868;2022-09-09T08:06:37;100823.97;;;22.43;51.74
68399;BME280;56258;52.196;13.868;2022-09-09T08:09:04;100830.69;;;22.47;52.25
68399;BME280;56258;52.196;13.868;2022-09-09T08:11:32;100824.22;;;22.48;52.14
68399;BME280;56258;52.196;13.868;2022-09-09T08:14:05;100826.09;;;22.48;51.55
68399;BME280;56258;52.196;13.868;2022-09-09T08:16:35;100822.34;;;22.49;52.13
68399;BME280;56258;52.196;13.868;2022-09-09T08:19:03;100823.19;;;22.49;51.56
68399;BME280;56258;52.196;13.868;2022-09-09T08:21:31;100824.44;;;22.47;51.45
68399;BME280;56258;52.196;13.868;2022-09-09T08:24:00;100821.53;;;22.48;52.25
68399;BME280;56258;52.196;13.868;2022-09-09T08:26:30;100829.78;;;22.40;52.66
68399;BME280;56258;52.196;13.868;2022-09-09T08:28:58;100823.13;;;22.42;51.98
68399;BME280;56258;52.196;13.868;2022-09-09T08:31:39;100825.44;;;22.46;52.08
68399;BME280;56258;52.196;13.868;2022-09-09T08:34:06;100822.72;;;22.46;52.33
68399;BME280;56258;52.196;13.868;2022-09-09T08:36:36;100827.97;;;22.47;51.66
68399;BME280;56258;52.196;13.868;2022-09-09T08:39:04;100825.63;;;22.44;51.73
68399;BME280;56258;52.196;13.868;2022-09-09T08:52:31;100827.41;;;22.86;51.32
68399;BME280;56258;52.196;13.868;2022-09-09T08:57:58;100825.38;;;22.95;50.28
68399;BME280;56258;52.196;13.868;2022-09-09T09:00:37;100825.91;;;23.86;48.63
68399;BME280;56258;52.196;13.868;2022-09-09T09:11:46;100820.41;;;24.72;46.05
68399;BME280;56258;52.196;13.868;2022-09-09T09:14:23;100809.44;;;24.98;45.35
68399;BME280;56258;52.196;13.868;2022-09-09T09:16:54;100815.13;;;24.97;45.18
68399;BME280;56258;52.196;13.868;2022-09-09T09:19:23;100812.13;;;25.25;44.91
68399;BME280;56258;52.196;13.868;2022-09-09T09:24:54;100802.28;;;25.94;43.17
68399;BME280;56258;52.196;13.868;2022-09-09T09:27:31;100819.78;;;26.29;42.38
68399;BME280;56258;52.196;13.868;2022-09-09T09:30:22;100809.03;;;26.41;41.92
68399;BME280;56258;52.196;13.868;2022-09-09T09:33:10;100804.19;;;26.61;41.69
68399;BME280;56258;52.196;13.868;2022-09-09T09:35:39;100800.09;;;26.70;41.29
68399;BME280;56258;52.196;13.868;2022-09-09T09:38:25;100804.03;;;27.29;40.00
68399;BME280;56258;52.196;13.868;2022-09-09T09:41:13;100814.59;;;27.98;38.66
68399;BME280;56258;52.196;13.868;2022-09-09T09:43:40;100807.75;;;28.54;37.25
68399;BME280;56258;52.196;13.868;2022-09-09T09:46:23;100811.44;;;28.59;37.46
68399;BME280;56258;52.196;13.868;2022-09-09T09:49:04;100818.41;;;27.97;38.34
68399;BME280;56258;52.196;13.868;2022-09-09T09:51:33;100823.13;;;27.89;38.60
68399;BME280;56258;52.196;13.868;2022-09-09T09:54:14;100823.94;;;28.55;37.35
68399;BME280;56258;52.196;13.868;2022-09-09T09:56:45;100824.56;;;29.21;36.03
68399;BME280;56258;52.196;13.868;2022-09-09T09:59:33;100820.72;;;29.62;35.49
68399;BME280;56258;52.196;13.868;2022-09-09T10:02:21;100823.34;;;30.02;34.35
68399;BME280;56258;52.196;13.868;2022-09-09T10:07:28;100820.44;;;30.09;34.23
68399;BME280;56258;52.196;13.868;2022-09-09T10:09:56;100813.84;;;30.60;33.50
68399;BME280;56258;52.196;13.868;2022-09-09T10:18:31;100817.84;;;31.84;31.35
68399;BME280;56258;52.196;13.868;2022-09-09T10:21:23;100815.31;;;32.09;30.57
68399;BME280;56258;52.196;13.868;2022-09-09T10:24:07;100809.38;;;31.90;31.21
68399;BME280;56258;52.196;13.868;2022-09-09T10:26:56;100810.56;;;32.05;30.64
68399;BME280;56258;52.196;13.868;2022-09-09T10:32:41;100809.34;;;32.22;31.06
68399;BME280;56258;52.196;13.868;2022-09-09T10:38:15;100807.69;;;32.21;30.70
68399;BME280;56258;52.196;13.868;2022-09-09T10:40:49;100803.19;;;31.24;32.55
68399;BME280;56258;52.196;13.868;2022-09-09T10:46:22;100809.56;;;32.16;30.77
68399;BME280;56258;52.196;13.868;2022-09-09T10:54:24;100814.09;;;29.18;36.36
68399;BME280;56258;52.196;13.868;2022-09-09T10:56:59;100817.16;;;30.62;33.82
68399;BME280;56258;52.196;13.868;2022-09-09T10:59:33;100816.47;;;31.32;32.64
68399;BME280;56258;52.196;13.868;2022-09-09T11:02:21;100810.94;;;31.81;31.31
68399;BME280;56258;52.196;13.868;2022-09-09T11:04:56;100803.69;;;30.61;33.23
68399;BME280;56258;52.196;13.868;2022-09-09T11:07:39;100808.00;;;28.40;37.54
68399;BME280;56258;52.196;13.868;2022-09-09T11:10:25;100816.22;;;27.45;39.83
68399;BME280;56258;52.196;13.868;2022-09-09T11:13:00;100804.22;;;26.98;40.53
68399;BME280;56258;52.196;13.868;2022-09-09T11:15:36;100802.97;;;26.57;41.68
68399;BME280;56258;52.196;13.868;2022-09-09T11:18:13;100810.47;;;26.18;43.05
68399;BME280;56258;52.196;13.868;2022-09-09T11:20:43;100805.50;;;26.09;43.21
68399;BME280;56258;52.196;13.868;2022-09-09T11:23:18;100806.50;;;25.89;43.80
68399;BME280;56258;52.196;13.868;2022-09-09T11:25:53;100810.22;;;25.95;43.16
68399;BME280;56258;52.196;13.868;2022-09-09T11:28:32;100803.13;;;25.94;43.14
68399;BME280;56258;52.196;13.868;2022-09-09T11:31:32;100809.06;;;25.84;43.28
68399;BME280;56258;52.196;13.868;2022-09-09T11:37:16;100805.47;;;26.59;42.33
68399;BME280;56258;52.196;13.868;2022-09-09T11:42:32;100795.13;;;33.46;28.98
68399;BME280;56258;52.196;13.868;2022-09-09T11:45:09;100785.19;;;33.45;28.63
68399;BME280;56258;52.196;13.868;2022-09-09T11:47:36;100783.09;;;29.57;35.03
68399;BME280;56258;52.196;13.868;2022-09-09T11:52:40;100775.47;;;31.53;32.58
68399;BME280;56258;52.196;13.868;2022-09-09T11:55:20;100772.88;;;32.37;31.00
68399;BME280;56258;52.196;13.868;2022-09-09T11:57:58;100779.81;;;31.49;31.76
68399;BME280;56258;52.196;13.868;2022-09-09T12:00:54;100776.53;;;32.11;30.89
68399;BME280;56258;52.196;13.868;2022-09-09T12:06:19;100762.16;;;32.41;30.69
68399;BME280;56258;52.196;13.868;2022-09-09T12:08:56;100769.94;;;32.12;31.25
68399;BME280;56258;52.196;13.868;2022-09-09T12:11:29;100766.28;;;32.01;31.56
68399;BME280;56258;52.196;13.868;2022-09-09T12:13:58;100760.72;;;31.91;31.86
68399;BME280;56258;52.196;13.868;2022-09-09T12:16:32;100760.97;;;31.89;31.70
68399;BME280;56258;52.196;13.868;2022-09-09T12:19:14;100759.53;;;31.55;32.34
68399;BME280;56258;52.196;13.868;2022-09-09T12:24:34;100749.50;;;31.39;32.29
68399;BME280;56258;52.196;13.868;2022-09-09T12:27:34;100748.94;;;29.77;35.56
68399;BME280;56258;52.196;13.868;2022-09-09T12:30:08;100756.97;;;29.83;35.87
68399;BME280;56258;52.196;13.868;2022-09-09T12:32:36;100757.66;;;28.88;37.11
68399;BME280;56258;52.196;13.868;2022-09-09T12:35:11;100757.66;;;28.76;37.38
68399;BME280;56258;52.196;13.868;2022-09-09T12:37:52;100762.19;;;27.89;39.24
68399;BME280;56258;52.196;13.868;2022-09-09T12:40:27;100766.16;;;27.21;40.51
68399;BME280;56258;52.196;13.868;2022-09-09T12:42:54;100760.94;;;27.01;41.37
68399;BME280;56258;52.196;13.868;2022-09-09T12:45:24;100755.69;;;26.82;42.01
68399;BME280;56258;52.196;13.868;2022-09-09T12:48:03;100752.44;;;27.40;40.65
68399;BME280;56258;52.196;13.868;2022-09-09T12:50:43;100749.66;;;27.58;40.52
68399;BME280;56258;52.196;13.868;2022-09-09T12:53:31;100750.78;;;27.69;40.17
68399;BME280;56258;52.196;13.868;2022-09-09T12:56:07;100747.81;;;27.40;40.59
68399;BME280;56258;52.196;13.868;2022-09-09T12:58:36;100746.09;;;27.27;41.00
68399;BME280;56258;52.196;13.868;2022-09-09T13:01:05;100749.09;;;27.38;40.89
68399;BME280;56258;52.196;13.868;2022-09-09T13:03:33;100750.25;;;27.60;40.40
68399;BME280;56258;52.196;13.868;2022-09-09T13:06:17;100743.03;;;27.77;39.92
68399;BME280;56258;52.196;13.868;2022-09-09T13:08:45;100737.97;;;28.04;39.57
68399;BME280;56258;52.196;13.868;2022-09-09T13:11:37;100739.72;;;27.87;39.94
68399;BME280;56258;52.196;13.868;2022-09-09T13:14:02;100745.31;;;27.69;39.93
68399;BME280;56258;52.196;13.868;2022-09-09T13:16:31;100746.75;;;27.83;39.95
68399;BME280;56258;52.196;13.868;2022-09-09T13:19:16;100730.31;;;27.29;40.86
68399;BME280;56258;52.196;13.868;2022-09-09T13:21:43;100726.91;;;26.86;42.34
68399;BME280;56258;52.196;13.868;2022-09-09T13:24:30;100732.59;;;26.48;42.62
68399;BME280;56258;52.196;13.868;2022-09-09T13:27:01;100728.84;;;26.24;43.79
68399;BME280;56258;52.196;13.868;2022-09-09T13:29:31;100734.22;;;26.12;43.73
68399;BME280;56258;52.196;13.868;2022-09-09T13:32:05;100739.28;;;26.08;43.64
68399;BME280;56258;52.196;13.868;2022-09-09T13:34:35;100727.16;;;26.04;43.75
68399;BME280;56258;52.196;13.868;2022-09-09T13:37:04;100733.28;;;26.00;44.19
68399;BME280;56258;52.196;13.868;2022-09-09T13:39:35;100743.97;;;26.44;43.51
68399;BME280;56258;52.196;13.868;2022-09-09T13:42:03;100743.72;;;27.01;42.03
68399;BME280;56258;52.196;13.868;2022-09-09T13:44:34;100749.31;;;27.24;41.73
68399;BME280;56258;52.196;13.868;2022-09-09T13:47:17;100745.97;;;27.64;40.65
68399;BME280;56258;52.196;13.868;2022-09-09T13:49:45;100747.69;;;27.88;40.29
68399;BME280;56258;52.196;13.868;2022-09-09T13:52:14;100739.97;;;28.09;39.73
68399;BME280;56258;52.196;13.868;2022-09-09T13:54:42;100745.97;;;28.29;39.62
68399;BME280;56258;52.196;13.868;2022-09-09T13:57:29;100747.50;;;28.48;39.04
68399;BME280;56258;52.196;13.868;2022-09-09T13:59:56;100745.44;;;28.56;39.00
68399;BME280;56258;52.196;13.868;2022-09-09T14:02:31;100738.50;;;28.76;38.62
68399;BME280;56258;52.196;13.868;2022-09-09T14:04:59;100736.34;;;28.78;38.51
68399;BME280;56258;52.196;13.868;2022-09-09T14:07:25;100725.06;;;28.75;38.50
68399;BME280;56258;52.196;13.868;2022-09-09T14:09:52;100737.75;;;28.81;38.41
68399;BME280;56258;52.196;13.868;2022-09-09T14:12:19;100733.72;;;28.95;38.21
68399;BME280;56258;52.196;13.868;2022-09-09T14:14:46;100732.84;;;29.07;37.97
68399;BME280;56258;52.196;13.868;2022-09-09T14:17:13;100737.72;;;29.04;38.26
68399;BME280;56258;52.196;13.868;2022-09-09T14:19:40;100728.91;;;29.02;38.18
68399;BME280;56258;52.196;13.868;2022-09-09T14:22:07;100735.09;;;29.10;37.99
68399;BME280;56258;52.196;13.868;2022-09-09T14:24:34;100732.06;;;28.94;38.05
68399;BME280;56258;52.196;13.868;2022-09-09T14:27:00;100729.34;;;28.94;38.23
68399;BME280;56258;52.196;13.868;2022-09-09T14:29:27;100726.41;;;28.61;38.95
68399;BME280;56258;52.196;13.868;2022-09-09T14:31:54;100728.69;;;27.94;40.50
68399;BME280;56258;52.196;13.868;2022-09-09T14:34:21;100721.31;;;27.71;40.84
68399;BME280;56258;52.196;13.868;2022-09-09T14:36:47;100712.72;;;27.55;41.30
68399;BME280;56258;52.196;13.868;2022-09-09T14:39:14;100714.41;;;27.26;41.92
68399;BME280;56258;52.196;13.868;2022-09-09T14:41:41;100706.00;;;27.28;41.37
68399;BME280;56258;52.196;13.868;2022-09-09T14:44:07;100710.53;;;27.34;41.92
68399;BME280;56258;52.196;13.868;2022-09-09T14:46:34;100710.53;;;27.34;41.87